sensor_id;sensor_type;location;lat;lon;timestamp;pressure;altitude;pressure_sealevel;temperature;humidity
22031;BME280;11179;52.106;21.024;2024-01-11T00:00:20;101337.53;;;-6.63;61.92
22031;BME280;11179;52.106;21.024;2024-01-11T00:02:45;101326.41;;;-6.69;62.11
22031;BME280;11179;52.106;21.024;2024-01-11T00:05:11;101326.84;;;-6.63;62.11
22031;BME280;11179;52.106;21.024;2024-01-11T00:07:36;101317.03;;;-6.63;62.15
22031;BME280;11179;52.106;21.024;2024-01-11T00:10:02;101310.84;;;-6.63;62.17
22031;BME280;11179;52.106;21.024;2024-01-11T00:12:28;101307.19;;;-6.62;62.24
22031;BME280;11179;52.106;21.024;2024-01-11T00:14:54;101301.47;;;-6.58;62.26
22031;BME280;11179;52.106;21.024;2024-01-11T00:17:19;101301.59;;;-6.59;62.18
22031;BME280;11179;52.106;21.024;2024-01-11T00:19:44;101290.91;;;-6.59;62.26
22031;BME280;11179;52.106;21.024;2024-01-11T00:22:10;101284.47;;;-6.57;62.26
22031;BME280;11179;52.106;21.024;2024-01-11T00:24:35;101276.59;;;-6.58;62.70
22031;BME280;11179;52.106;21.024;2024-01-11T00:27:01;101284.38;;;-6.55;62.43
22031;BME280;11179;52.106;21.024;2024-01-11T00:29:26;101278.28;;;-6.57;62.52
22031;BME280;11179;52.106;21.024;2024-01-11T00:31:51;101277.31;;;-6.56;62.45
22031;BME280;11179;52.106;21.024;2024-01-11T00:34:16;101281.56;;;-6.54;62.48
22031;BME280;11179;52.106;21.024;2024-01-11T00:36:42;101275.38;;;-6.54;62.61
22031;BME280;11179;52.106;21.024;2024-01-11T00:39:07;101280.19;;;-6.48;62.60
22031;BME280;11179;52.106;21.024;2024-01-11T00:41:32;101279.09;;;-6.46;62.75
22031;BME280;11179;52.106;21.024;2024-01-11T00:43:59;101282.63;;;-6.45;62.66
22031;BME280;11179;52.106;21.024;2024-01-11T00:46:24;101292.09;;;-6.41;62.69
22031;BME280;11179;52.106;21.024;2024-01-11T00:48:49;101296.47;;;-6.40;62.82
22031;BME280;11179;52.106;21.024;2024-01-11T00:51:15;101280.91;;;-6.46;62.81
22031;BME280;11179;52.106;21.024;2024-01-11T00:53:40;101299.72;;;-6.37;62.86
22031;BME280;11179;52.106;21.024;2024-01-11T00:56:15;101290.47;;;-6.33;62.87
22031;BME280;11179;52.106;21.024;2024-01-11T00:58:40;101296.56;;;-6.31;62.85
22031;BME280;11179;52.106;21.024;2024-01-11T01:01:08;101310.75;;;-6.30;62.86
22031;BME280;11179;52.106;21.024;2024-01-11T01:03:34;101319.75;;;-6.31;62.90
22031;BME280;11179;52.106;21.024;2024-01-11T01:06:00;101300.19;;;-6.32;62.88
22031;BME280;11179;52.106;21.024;2024-01-11T01:08:26;101295.69;;;-6.31;62.91
22031;BME280;11179;52.106;21.024;2024-01-11T01:10:52;101286.94;;;-6.33;62.85
22031;BME280;11179;52.106;21.024;2024-01-11T01:13:17;101280.50;;;-6.31;62.89
22031;BME280;11179;52.106;21.024;2024-01-11T01:15:43;101273.22;;;-6.28;62.97
22031;BME280;11179;52.106;21.024;2024-01-11T01:18:08;101258.41;;;-6.33;62.79
22031;BME280;11179;52.106;21.024;2024-01-11T01:20:33;101267.16;;;-6.31;62.88
22031;BME280;11179;52.106;21.024;2024-01-11T01:22:58;101284.03;;;-6.30;62.80
22031;BME280;11179;52.106;21.024;2024-01-11T01:25:24;101274.31;;;-6.31;62.83
22031;BME280;11179;52.106;21.024;2024-01-11T01:27:49;101288.13;;;-6.26;62.77
22031;BME280;11179;52.106;21.024;2024-01-11T01:30:14;101286.72;;;-6.30;62.69
22031;BME280;11179;52.106;21.024;2024-01-11T01:32:40;101288.41;;;-6.29;62.87
22031;BME280;11179;52.106;21.024;2024-01-11T01:35:05;101293.47;;;-6.26;62.85
22031;BME280;11179;52.106;21.024;2024-01-11T01:37:30;101287.44;;;-6.28;62.79
22031;BME280;11179;52.106;21.024;2024-01-11T01:39:56;101299.81;;;-6.27;62.70
22031;BME280;11179;52.106;21.024;2024-01-11T01:42:21;101313.19;;;-6.27;62.81
22031;BME280;11179;52.106;21.024;2024-01-11T01:44:46;101303.72;;;-6.31;62.79
22031;BME280;11179;52.106;21.024;2024-01-11T01:47:12;101297.41;;;-6.30;62.83
22031;BME280;11179;52.106;21.024;2024-01-11T01:49:37;101280.75;;;-6.34;62.77
22031;BME280;11179;52.106;21.024;2024-01-11T01:52:04;101267.03;;;-6.29;62.57
22031;BME280;11179;52.106;21.024;2024-01-11T01:54:31;101271.66;;;-6.31;62.76
22031;BME280;11179;52.106;21.024;2024-01-11T01:56:57;101247.66;;;-6.42;62.67
22031;BME280;11179;52.106;21.024;2024-01-11T01:59:24;101264.47;;;-6.31;62.82
22031;BME280;11179;52.106;21.024;2024-01-11T02:01:50;101257.19;;;-6.28;62.76
22031;BME280;11179;52.106;21.024;2024-01-11T02:04:16;101242.25;;;-6.31;62.86
22031;BME280;11179;52.106;21.024;2024-01-11T02:06:44;101240.31;;;-6.29;62.87
22031;BME280;11179;52.106;21.024;2024-01-11T02:09:11;101248.31;;;-6.29;62.89
22031;BME280;11179;52.106;21.024;2024-01-11T02:11:38;101260.59;;;-6.26;62.78
22031;BME280;11179;52.106;21.024;2024-01-11T02:14:04;101268.44;;;-6.25;62.83
22031;BME280;11179;52.106;21.024;2024-01-11T02:16:29;101270.16;;;-6.24;62.81
22031;BME280;11179;52.106;21.024;2024-01-11T02:18:55;101259.84;;;-6.28;62.87
22031;BME280;11179;52.106;21.024;2024-01-11T02:21:22;101262.53;;;-6.28;62.83
22031;BME280;11179;52.106;21.024;2024-01-11T02:24:07;101241.41;;;-6.32;62.88
22031;BME280;11179;52.106;21.024;2024-01-11T02:26:33;101252.94;;;-6.31;62.93
22031;BME280;11179;52.106;21.024;2024-01-11T02:28:59;101264.47;;;-6.31;62.85
22031;BME280;11179;52.106;21.024;2024-01-11T02:31:25;101246.13;;;-6.35;62.87
22031;BME280;11179;52.106;21.024;2024-01-11T02:33:52;101246.75;;;-6.32;62.92
22031;BME280;11179;52.106;21.024;2024-01-11T02:36:17;101240.56;;;-6.32;62.72
22031;BME280;11179;52.106;21.024;2024-01-11T02:38:43;101233.84;;;-6.26;62.78
22031;BME280;11179;52.106;21.024;2024-01-11T02:41:08;101247.91;;;-6.24;62.84
22031;BME280;11179;52.106;21.024;2024-01-11T02:43:35;101250.22;;;-6.20;62.73
22031;BME280;11179;52.106;21.024;2024-01-11T02:46:04;101251.66;;;-6.16;62.65
22031;BME280;11179;52.106;21.024;2024-01-11T02:48:29;101256.75;;;-6.13;62.68
22031;BME280;11179;52.106;21.024;2024-01-11T02:50:56;101230.03;;;-6.13;62.56
22031;BME280;11179;52.106;21.024;2024-01-11T02:53:22;101220.16;;;-6.12;62.59
22031;BME280;11179;52.106;21.024;2024-01-11T02:55:49;101215.53;;;-6.10;62.51
22031;BME280;11179;52.106;21.024;2024-01-11T02:58:14;101226.09;;;-6.09;62.45
22031;BME280;11179;52.106;21.024;2024-01-11T03:00:39;101212.00;;;-6.11;62.50
22031;BME280;11179;52.106;21.024;2024-01-11T03:03:05;101240.19;;;-6.07;62.38
22031;BME280;11179;52.106;21.024;2024-01-11T03:05:30;101246.13;;;-6.03;62.48
22031;BME280;11179;52.106;21.024;2024-01-11T03:07:56;101261.31;;;-6.04;62.31
22031;BME280;11179;52.106;21.024;2024-01-11T03:10:21;101260.09;;;-6.00;62.36
22031;BME280;11179;52.106;21.024;2024-01-11T03:12:48;101232.63;;;-6.02;62.45
22031;BME280;11179;52.106;21.024;2024-01-11T03:15:14;101237.69;;;-5.99;62.31
22031;BME280;11179;52.106;21.024;2024-01-11T03:17:40;101239.25;;;-5.96;62.39
22031;BME280;11179;52.106;21.024;2024-01-11T03:20:06;101228.69;;;-5.98;62.33
22031;BME280;11179;52.106;21.024;2024-01-11T03:22:31;101233.78;;;-5.95;62.49
22031;BME280;11179;52.106;21.024;2024-01-11T03:24:56;101241.69;;;-5.93;62.43
22031;BME280;11179;52.106;21.024;2024-01-11T03:27:22;101227.59;;;-5.95;62.51
22031;BME280;11179;52.106;21.024;2024-01-11T03:29:47;101226.75;;;-5.96;62.60
22031;BME280;11179;52.106;21.024;2024-01-11T03:32:14;101241.56;;;-5.91;62.66
22031;BME280;11179;52.106;21.024;2024-01-11T03:34:40;101229.03;;;-5.91;62.66
22031;BME280;11179;52.106;21.024;2024-01-11T03:37:05;101210.69;;;-5.96;62.58
22031;BME280;11179;52.106;21.024;2024-01-11T03:39:30;101197.66;;;-5.89;62.59
22031;BME280;11179;52.106;21.024;2024-01-11T03:41:56;101177.03;;;-5.98;62.90
22031;BME280;11179;52.106;21.024;2024-01-11T03:44:22;101186.97;;;-5.89;62.96
22031;BME280;11179;52.106;21.024;2024-01-11T03:46:47;101162.56;;;-5.96;62.91
22031;BME280;11179;52.106;21.024;2024-01-11T03:49:12;101161.34;;;-5.91;63.14
22031;BME280;11179;52.106;21.024;2024-01-11T03:51:37;101159.75;;;-5.94;63.42
22031;BME280;11179;52.106;21.024;2024-01-11T03:54:03;101163.28;;;-5.93;63.40
22031;BME280;11179;52.106;21.024;2024-01-11T03:56:28;101157.09;;;-5.94;63.51
22031;BME280;11179;52.106;21.024;2024-01-11T03:58:53;101148.09;;;-5.93;63.63
22031;BME280;11179;52.106;21.024;2024-01-11T04:01:19;101134.59;;;-5.91;63.77
22031;BME280;11179;52.106;21.024;2024-01-11T04:03:44;101127.03;;;-5.86;63.78
22031;BME280;11179;52.106;21.024;2024-01-11T04:06:19;101130.38;;;-5.84;63.90
22031;BME280;11179;52.106;21.024;2024-01-11T04:08:46;101114.06;;;-5.81;63.87
22031;BME280;11179;52.106;21.024;2024-01-11T04:11:11;101122.09;;;-5.81;63.96
22031;BME280;11179;52.106;21.024;2024-01-11T04:13:36;101151.13;;;-5.77;64.12
22031;BME280;11179;52.106;21.024;2024-01-11T04:16:05;101138.47;;;-5.75;64.16
22031;BME280;11179;52.106;21.024;2024-01-11T04:18:30;101136.66;;;-5.74;64.29
22031;BME280;11179;52.106;21.024;2024-01-11T04:20:56;101140.59;;;-5.69;64.35
22031;BME280;11179;52.106;21.024;2024-01-11T04:23:21;101151.44;;;-5.70;64.32
22031;BME280;11179;52.106;21.024;2024-01-11T04:25:46;101137.19;;;-5.71;64.43
22031;BME280;11179;52.106;21.024;2024-01-11T04:28:12;101143.41;;;-5.70;64.66
22031;BME280;11179;52.106;21.024;2024-01-11T04:30:37;101153.72;;;-5.66;64.70
22031;BME280;11179;52.106;21.024;2024-01-11T04:33:02;101146.66;;;-5.67;64.79
22031;BME280;11179;52.106;21.024;2024-01-11T04:35:28;101146.78;;;-5.68;65.03
22031;BME280;11179;52.106;21.024;2024-01-11T04:37:53;101141.06;;;-5.64;65.00
22031;BME280;11179;52.106;21.024;2024-01-11T04:40:18;101142.63;;;-5.61;65.08
22031;BME280;11179;52.106;21.024;2024-01-11T04:42:44;101139.94;;;-5.61;65.13
22031;BME280;11179;52.106;21.024;2024-01-11T04:45:09;101136.81;;;-5.66;65.24
22031;BME280;11179;52.106;21.024;2024-01-11T04:47:34;101153.56;;;-5.64;65.48
22031;BME280;11179;52.106;21.024;2024-01-11T04:50:00;101156.97;;;-5.62;65.59
22031;BME280;11179;52.106;21.024;2024-01-11T04:52:26;101154.84;;;-5.59;65.68
22031;BME280;11179;52.106;21.024;2024-01-11T04:54:51;101147.66;;;-5.58;65.71
22031;BME280;11179;52.106;21.024;2024-01-11T04:57:16;101135.00;;;-5.56;65.85
22031;BME280;11179;52.106;21.024;2024-01-11T04:59:42;101126.25;;;-5.58;65.86
22031;BME280;11179;52.106;21.024;2024-01-11T05:02:07;101141.34;;;-5.57;65.89
22031;BME280;11179;52.106;21.024;2024-01-11T05:04:32;101138.28;;;-5.52;65.96
22031;BME280;11179;52.106;21.024;2024-01-11T05:06:57;101145.44;;;-5.53;66.11
22031;BME280;11179;52.106;21.024;2024-01-11T05:09:23;101131.34;;;-5.55;66.23
22031;BME280;11179;52.106;21.024;2024-01-11T05:11:48;101140.09;;;-5.53;66.31
22031;BME280;11179;52.106;21.024;2024-01-11T05:14:13;101138.84;;;-5.49;66.48
22031;BME280;11179;52.106;21.024;2024-01-11T05:16:39;101138.13;;;-5.51;66.64
22031;BME280;11179;52.106;21.024;2024-01-11T05:19:04;101144.22;;;-5.49;66.83
22031;BME280;11179;52.106;21.024;2024-01-11T05:21:30;101126.47;;;-5.50;67.13
22031;BME280;11179;52.106;21.024;2024-01-11T05:23:55;101121.81;;;-5.48;66.95
22031;BME280;11179;52.106;21.024;2024-01-11T05:26:20;101130.13;;;-5.51;67.00
22031;BME280;11179;52.106;21.024;2024-01-11T05:28:46;101123.66;;;-5.48;67.29
22031;BME280;11179;52.106;21.024;2024-01-11T05:31:13;101103.22;;;-5.49;67.25
22031;BME280;11179;52.106;21.024;2024-01-11T05:33:43;101104.06;;;-5.49;67.42
22031;BME280;11179;52.106;21.024;2024-01-11T05:36:11;101104.06;;;-5.49;67.53
22031;BME280;11179;52.106;21.024;2024-01-11T05:38:38;101091.81;;;-5.51;67.74
22031;BME280;11179;52.106;21.024;2024-01-11T05:41:04;101088.56;;;-5.45;67.75
22031;BME280;11179;52.106;21.024;2024-01-11T05:43:29;101089.84;;;-5.40;67.89
22031;BME280;11179;52.106;21.024;2024-01-11T05:45:54;101090.69;;;-5.39;67.82
22031;BME280;11179;52.106;21.024;2024-01-11T05:48:20;101085.34;;;-5.39;67.95
22031;BME280;11179;52.106;21.024;2024-01-11T05:50:45;101070.41;;;-5.42;68.00
22031;BME280;11179;52.106;21.024;2024-01-11T05:53:14;101072.94;;;-5.40;68.18
22031;BME280;11179;52.106;21.024;2024-01-11T05:55:39;101054.91;;;-5.48;68.03
22031;BME280;11179;52.106;21.024;2024-01-11T05:58:05;101070.97;;;-5.38;68.01
22031;BME280;11179;52.106;21.024;2024-01-11T06:00:30;101057.75;;;-5.40;68.18
22031;BME280;11179;52.106;21.024;2024-01-11T06:02:56;101058.31;;;-5.36;68.26
22031;BME280;11179;52.106;21.024;2024-01-11T06:05:21;101053.94;;;-5.37;68.13
22031;BME280;11179;52.106;21.024;2024-01-11T06:07:46;101059.56;;;-5.31;68.38
22031;BME280;11179;52.106;21.024;2024-01-11T06:10:14;101044.50;;;-5.32;68.31
22031;BME280;11179;52.106;21.024;2024-01-11T06:12:40;101034.50;;;-5.30;68.34
22031;BME280;11179;52.106;21.024;2024-01-11T06:15:06;101038.88;;;-5.29;68.47
22031;BME280;11179;52.106;21.024;2024-01-11T06:17:32;101036.91;;;-5.27;68.47
22031;BME280;11179;52.106;21.024;2024-01-11T06:19:57;101024.63;;;-5.39;68.25
22031;BME280;11179;52.106;21.024;2024-01-11T06:22:23;101037.75;;;-5.26;68.41
22031;BME280;11179;52.106;21.024;2024-01-11T06:24:48;101031.13;;;-5.22;68.54
22031;BME280;11179;52.106;21.024;2024-01-11T06:27:13;101025.78;;;-5.22;68.58
22031;BME280;11179;52.106;21.024;2024-01-11T06:29:39;101021.81;;;-5.18;68.55
22031;BME280;11179;52.106;21.024;2024-01-11T06:32:05;101023.66;;;-5.18;68.37
22031;BME280;11179;52.106;21.024;2024-01-11T06:34:30;101020.56;;;-5.24;68.47
22031;BME280;11179;52.106;21.024;2024-01-11T06:36:55;101037.19;;;-5.10;68.71
22031;BME280;11179;52.106;21.024;2024-01-11T06:39:21;101034.53;;;-5.10;68.50
22031;BME280;11179;52.106;21.024;2024-01-11T06:41:46;101026.22;;;-5.07;68.60
22031;BME280;11179;52.106;21.024;2024-01-11T06:44:11;101011.28;;;-5.10;68.44
22031;BME280;11179;52.106;21.024;2024-01-11T06:46:37;101006.31;;;-5.05;68.64
22031;BME280;11179;52.106;21.024;2024-01-11T06:49:11;100982.94;;;-5.12;68.63
22031;BME280;11179;52.106;21.024;2024-01-11T06:51:37;101003.50;;;-5.03;68.75
22031;BME280;11179;52.106;21.024;2024-01-11T06:54:03;100999.69;;;-5.01;68.57
22031;BME280;11179;52.106;21.024;2024-01-11T06:56:29;101007.59;;;-4.99;68.53
22031;BME280;11179;52.106;21.024;2024-01-11T06:58:56;100996.31;;;-4.93;68.67
22031;BME280;11179;52.106;21.024;2024-01-11T07:01:21;100998.00;;;-4.92;68.71
22031;BME280;11179;52.106;21.024;2024-01-11T07:03:47;100994.63;;;-4.94;68.76
22031;BME280;11179;52.106;21.024;2024-01-11T07:06:12;100996.16;;;-4.92;68.78
22031;BME280;11179;52.106;21.024;2024-01-11T07:08:37;100995.16;;;-4.91;68.86
22031;BME280;11179;52.106;21.024;2024-01-11T07:11:03;100982.47;;;-4.89;68.87
22031;BME280;11179;52.106;21.024;2024-01-11T07:13:29;100987.56;;;-4.85;69.01
22031;BME280;11179;52.106;21.024;2024-01-11T07:15:54;100991.78;;;-4.83;68.75
22031;BME280;11179;52.106;21.024;2024-01-11T07:18:21;100973.19;;;-4.84;69.00
22031;BME280;11179;52.106;21.024;2024-01-11T07:20:46;100979.38;;;-4.84;68.95
22031;BME280;11179;52.106;21.024;2024-01-11T07:23:13;100989.50;;;-4.78;69.00
22031;BME280;11179;52.106;21.024;2024-01-11T07:25:38;100991.75;;;-4.73;69.16
22031;BME280;11179;52.106;21.024;2024-01-11T07:28:04;100985.28;;;-4.71;69.24
22031;BME280;11179;52.106;21.024;2024-01-11T07:30:30;100959.34;;;-4.70;69.26
22031;BME280;11179;52.106;21.024;2024-01-11T07:32:55;100974.28;;;-4.68;69.35
22031;BME280;11179;52.106;21.024;2024-01-11T07:35:20;100977.63;;;-4.66;69.59
22031;BME280;11179;52.106;21.024;2024-01-11T07:37:46;100975.66;;;-4.64;69.61
22031;BME280;11179;52.106;21.024;2024-01-11T07:40:12;100988.06;;;-4.53;69.74
22031;BME280;11179;52.106;21.024;2024-01-11T07:42:40;100989.16;;;-4.46;69.67
22031;BME280;11179;52.106;21.024;2024-01-11T07:45:09;100992.09;;;-4.39;69.87
22031;BME280;11179;52.106;21.024;2024-01-11T07:47:35;100988.59;;;-4.40;69.93
22031;BME280;11179;52.106;21.024;2024-01-11T07:50:03;100967.81;;;-4.38;70.18
22031;BME280;11179;52.106;21.024;2024-01-11T07:52:28;100964.59;;;-4.41;70.01
22031;BME280;11179;52.106;21.024;2024-01-11T07:54:54;100978.38;;;-4.36;70.12
22031;BME280;11179;52.106;21.024;2024-01-11T07:57:19;100984.31;;;-4.33;70.21
22031;BME280;11179;52.106;21.024;2024-01-11T07:59:44;100982.06;;;-4.37;70.39
22031;BME280;11179;52.106;21.024;2024-01-11T08:02:10;100987.84;;;-4.32;70.47
22031;BME280;11179;52.106;21.024;2024-01-11T08:04:35;100995.19;;;-4.34;70.59
22031;BME280;11179;52.106;21.024;2024-01-11T08:07:02;100993.19;;;-4.32;70.56
22031;BME280;11179;52.106;21.024;2024-01-11T08:09:28;100976.13;;;-4.31;70.67
22031;BME280;11179;52.106;21.024;2024-01-11T08:11:54;100986.16;;;-4.33;70.72
22031;BME280;11179;52.106;21.024;2024-01-11T08:14:22;100996.28;;;-4.27;70.82
22031;BME280;11179;52.106;21.024;2024-01-11T08:16:49;100986.41;;;-4.27;70.89
22031;BME280;11179;52.106;21.024;2024-01-11T08:19:14;100990.47;;;-4.23;70.70
22031;BME280;11179;52.106;21.024;2024-01-11T08:21:40;100997.25;;;-4.19;70.96
22031;BME280;11179;52.106;21.024;2024-01-11T08:24:09;100997.25;;;-4.19;71.16
22031;BME280;11179;52.106;21.024;2024-01-11T08:26:35;101004.53;;;-4.11;71.13
22031;BME280;11179;52.106;21.024;2024-01-11T08:29:01;101004.25;;;-4.08;71.09
22031;BME280;11179;52.106;21.024;2024-01-11T08:31:27;100988.44;;;-4.11;71.11
22031;BME280;11179;52.106;21.024;2024-01-11T08:33:53;100992.38;;;-4.05;71.20
22031;BME280;11179;52.106;21.024;2024-01-11T08:36:18;100998.31;;;-4.02;71.09
22031;BME280;11179;52.106;21.024;2024-01-11T08:38:43;101005.03;;;-3.98;71.10
22031;BME280;11179;52.106;21.024;2024-01-11T08:41:09;101000.22;;;-3.94;71.33
22031;BME280;11179;52.106;21.024;2024-01-11T08:43:34;101000.78;;;-3.91;71.48
22031;BME280;11179;52.106;21.024;2024-01-11T08:45:59;100998.38;;;-3.94;71.34
22031;BME280;11179;52.106;21.024;2024-01-11T08:48:26;100995.13;;;-3.88;71.54
22031;BME280;11179;52.106;21.024;2024-01-11T08:50:52;101003.84;;;-3.86;71.54
22031;BME280;11179;52.106;21.024;2024-01-11T08:53:17;101001.56;;;-3.81;71.47
22031;BME280;11179;52.106;21.024;2024-01-11T08:55:43;101006.94;;;-3.81;71.48
22031;BME280;11179;52.106;21.024;2024-01-11T08:58:08;101003.09;;;-3.78;71.58
22031;BME280;11179;52.106;21.024;2024-01-11T09:00:34;100991.38;;;-3.77;71.67
22031;BME280;11179;52.106;21.024;2024-01-11T09:02:59;100997.59;;;-3.76;71.55
22031;BME280;11179;52.106;21.024;2024-01-11T09:05:24;100988.28;;;-3.82;71.78
22031;BME280;11179;52.106;21.024;2024-01-11T09:07:50;100985.75;;;-3.84;71.71
22031;BME280;11179;52.106;21.024;2024-01-11T09:10:15;100990.28;;;-3.84;71.76
22031;BME280;11179;52.106;21.024;2024-01-11T09:12:41;100992.53;;;-3.80;71.92
22031;BME280;11179;52.106;21.024;2024-01-11T09:15:06;100988.69;;;-3.77;71.85
22031;BME280;11179;52.106;21.024;2024-01-11T09:17:32;100986.66;;;-3.65;72.00
22031;BME280;11179;52.106;21.024;2024-01-11T09:19:57;100964.47;;;-3.67;71.87
22031;BME280;11179;52.106;21.024;2024-01-11T09:22:23;100985.44;;;-3.53;71.94
22031;BME280;11179;52.106;21.024;2024-01-11T09:24:48;100976.38;;;-3.52;71.72
22031;BME280;11179;52.106;21.024;2024-01-11T09:27:13;100961.28;;;-3.53;71.51
22031;BME280;11179;52.106;21.024;2024-01-11T09:29:43;100952.97;;;-3.60;71.77
22031;BME280;11179;52.106;21.024;2024-01-11T09:32:09;100963.03;;;-3.44;71.65
22031;BME280;11179;52.106;21.024;2024-01-11T09:34:35;100961.03;;;-3.42;71.61
22031;BME280;11179;52.106;21.024;2024-01-11T09:37:00;100951.69;;;-3.38;71.71
22031;BME280;11179;52.106;21.024;2024-01-11T09:39:26;100940.81;;;-3.36;71.76
22031;BME280;11179;52.106;21.024;2024-01-11T09:41:58;100929.91;;;-3.35;71.54
22031;BME280;11179;52.106;21.024;2024-01-11T09:44:25;100931.81;;;-3.27;71.58
22031;BME280;11179;52.106;21.024;2024-01-11T09:46:51;100930.41;;;-3.14;71.70
22031;BME280;11179;52.106;21.024;2024-01-11T09:49:19;100931.09;;;-2.94;71.61
22031;BME280;11179;52.106;21.024;2024-01-11T09:51:47;100922.75;;;-2.83;71.49
22031;BME280;11179;52.106;21.024;2024-01-11T09:54:13;100920.41;;;-2.78;71.34
22031;BME280;11179;52.106;21.024;2024-01-11T09:56:39;100921.25;;;-2.77;71.20
22031;BME280;11179;52.106;21.024;2024-01-11T09:59:06;100924.44;;;-2.82;71.04
22031;BME280;11179;52.106;21.024;2024-01-11T10:01:34;100906.78;;;-2.84;71.07
22031;BME280;11179;52.106;21.024;2024-01-11T10:04:01;100915.38;;;-2.81;70.93
22031;BME280;11179;52.106;21.024;2024-01-11T10:06:27;100897.03;;;-2.85;71.09
22031;BME280;11179;52.106;21.024;2024-01-11T10:08:52;100891.66;;;-2.85;71.15
22031;BME280;11179;52.106;21.024;2024-01-11T10:11:17;100898.19;;;-2.88;71.09
22031;BME280;11179;52.106;21.024;2024-01-11T10:13:43;100887.59;;;-2.89;71.04
22031;BME280;11179;52.106;21.024;2024-01-11T10:16:10;100899.72;;;-2.85;71.16
22031;BME280;11179;52.106;21.024;2024-01-11T10:18:38;100884.59;;;-2.86;70.93
22031;BME280;11179;52.106;21.024;2024-01-11T10:21:03;100889.75;;;-2.93;70.90
22031;BME280;11179;52.106;21.024;2024-01-11T10:23:29;100897.34;;;-2.88;70.84
22031;BME280;11179;52.106;21.024;2024-01-11T10:25:57;100893.97;;;-2.90;70.97
22031;BME280;11179;52.106;21.024;2024-01-11T10:28:25;100884.28;;;-2.83;70.96
22031;BME280;11179;52.106;21.024;2024-01-11T10:30:51;100890.38;;;-2.73;70.89
22031;BME280;11179;52.106;21.024;2024-01-11T10:33:20;100890.25;;;-2.63;70.89
22031;BME280;11179;52.106;21.024;2024-01-11T10:35:48;100892.19;;;-2.48;70.79
22031;BME280;11179;52.106;21.024;2024-01-11T10:38:15;100897.59;;;-2.40;70.64
22031;BME280;11179;52.106;21.024;2024-01-11T10:40:41;100902.66;;;-2.37;70.51
22031;BME280;11179;52.106;21.024;2024-01-11T10:43:08;100896.94;;;-2.42;70.39
22031;BME280;11179;52.106;21.024;2024-01-11T10:45:36;100893.19;;;-2.49;70.33
22031;BME280;11179;52.106;21.024;2024-01-11T10:48:06;100887.66;;;-2.47;70.50
22031;BME280;11179;52.106;21.024;2024-01-11T10:50:36;100891.41;;;-2.40;70.62
22031;BME280;11179;52.106;21.024;2024-01-11T10:55:49;100873.38;;;-2.48;70.49
22031;BME280;11179;52.106;21.024;2024-01-11T10:58:15;100873.06;;;-2.37;70.63
22031;BME280;11179;52.106;21.024;2024-01-11T11:00:41;100869.91;;;-2.32;70.55
22031;BME280;11179;52.106;21.024;2024-01-11T11:03:07;100874.81;;;-2.27;70.50
22031;BME280;11179;52.106;21.024;2024-01-11T11:05:34;100874.31;;;-2.23;70.40
22031;BME280;11179;52.106;21.024;2024-01-11T11:08:01;100865.91;;;-2.20;70.42
22031;BME280;11179;52.106;21.024;2024-01-11T11:10:27;100858.69;;;-2.19;70.47
22031;BME280;11179;52.106;21.024;2024-01-11T11:12:56;100852.63;;;-2.21;70.40
22031;BME280;11179;52.106;21.024;2024-01-11T11:15:27;100850.78;;;-2.21;70.36
22031;BME280;11179;52.106;21.024;2024-01-11T11:17:52;100831.94;;;-2.21;70.61
22031;BME280;11179;52.106;21.024;2024-01-11T11:20:18;100838.16;;;-2.20;70.45
22031;BME280;11179;52.106;21.024;2024-01-11T11:25:45;100830.47;;;-2.15;70.61
22031;BME280;11179;52.106;21.024;2024-01-11T11:28:15;100829.09;;;-2.19;70.57
22031;BME280;11179;52.106;21.024;2024-01-11T11:30:42;100824.56;;;-2.19;70.46
22031;BME280;11179;52.106;21.024;2024-01-11T11:33:30;100829.09;;;-2.19;70.65
22031;BME280;11179;52.106;21.024;2024-01-11T11:35:59;100827.78;;;-2.15;70.58
22031;BME280;11179;52.106;21.024;2024-01-11T11:38:30;100829.47;;;-2.14;70.58
22031;BME280;11179;52.106;21.024;2024-01-11T11:40:59;100827.41;;;-2.12;70.80
22031;BME280;11179;52.106;21.024;2024-01-11T11:43:28;100815.66;;;-2.11;70.79
22031;BME280;11179;52.106;21.024;2024-01-11T11:45:54;100814.16;;;-2.06;70.78
22031;BME280;11179;52.106;21.024;2024-01-11T11:51:15;100813.69;;;-2.01;70.73
22031;BME280;11179;52.106;21.024;2024-01-11T11:53:41;100795.16;;;-2.04;70.68
22031;BME280;11179;52.106;21.024;2024-01-11T11:56:08;100798.38;;;-2.01;70.74
22031;BME280;11179;52.106;21.024;2024-01-11T11:58:38;100805.59;;;-2.01;70.76
22031;BME280;11179;52.106;21.024;2024-01-11T12:01:08;100800.53;;;-1.96;70.84
22031;BME280;11179;52.106;21.024;2024-01-11T12:03:35;100799.72;;;-1.88;70.91
22031;BME280;11179;52.106;21.024;2024-01-11T12:06:02;100801.06;;;-1.84;70.86
22031;BME280;11179;52.106;21.024;2024-01-11T12:08:29;100797.34;;;-1.83;70.79
22031;BME280;11179;52.106;21.024;2024-01-11T12:10:54;100789.44;;;-1.93;70.80
22031;BME280;11179;52.106;21.024;2024-01-11T12:13:20;100800.06;;;-1.91;71.16
22031;BME280;11179;52.106;21.024;2024-01-11T12:15:46;100784.75;;;-1.91;70.97
22031;BME280;11179;52.106;21.024;2024-01-11T12:18:11;100796.88;;;-1.87;71.00
22031;BME280;11179;52.106;21.024;2024-01-11T12:20:36;100795.50;;;-1.91;71.04
22031;BME280;11179;52.106;21.024;2024-01-11T12:23:02;100805.97;;;-1.88;70.99
22031;BME280;11179;52.106;21.024;2024-01-11T12:25:28;100804.44;;;-1.82;71.15
22031;BME280;11179;52.106;21.024;2024-01-11T12:27:54;100808.00;;;-1.74;71.33
22031;BME280;11179;52.106;21.024;2024-01-11T12:30:23;100808.00;;;-1.74;71.12
22031;BME280;11179;52.106;21.024;2024-01-11T12:32:53;100799.22;;;-1.76;71.39
22031;BME280;11179;52.106;21.024;2024-01-11T12:35:20;100790.63;;;-1.71;71.30
22031;BME280;11179;52.106;21.024;2024-01-11T12:38:04;100779.38;;;-1.67;71.34
22031;BME280;11179;52.106;21.024;2024-01-11T12:40:33;100782.91;;;-1.66;71.16
22031;BME280;11179;52.106;21.024;2024-01-11T12:43:08;100791.97;;;-1.59;71.24